sensor_id;sensor_type;location;lat;lon;timestamp;pressure;altitude;pressure_sealevel;temperature;humidity
14767;BME280;7475;53.558;9.970;2023-06-10T00:01:49;101842.09;;;16.35;100.00
14767;BME280;7475;53.558;9.970;2023-06-10T00:04:15;101832.59;;;16.31;100.00
14767;BME280;7475;53.558;9.970;2023-06-10T00:06:43;101835.47;;;16.28;100.00
14767;BME280;7475;53.558;9.970;2023-06-10T00:09:09;101841.06;;;16.25;100.00
14767;BME280;7475;53.558;9.970;2023-06-10T00:11:36;101831.50;;;16.20;100.00
14767;BME280;7475;53.558;9.970;2023-06-10T00:14:01;101841.50;;;16.18;100.00
14767;BME280;7475;53.558;9.970;2023-06-10T00:16:27;101845.34;;;16.14;100.00
14767;BME280;7475;53.558;9.970;2023-06-10T00:18:52;101841.94;;;16.12;100.00
14767;BME280;7475;53.558;9.970;2023-06-10T00:21:18;101843.88;;;16.10;100.00
14767;BME280;7475;53.558;9.970;2023-06-10T00:23:44;101846.75;;;16.07;100.00
14767;BME280;7475;53.558;9.970;2023-06-10T00:26:09;101841.63;;;16.04;100.00
14767;BME280;7475;53.558;9.970;2023-06-10T00:28:35;101847.28;;;15.99;100.00
14767;BME280;7475;53.558;9.970;2023-06-10T00:31:01;101841.31;;;15.96;100.00
14767;BME280;7475;53.558;9.970;2023-06-10T00:33:26;101834.44;;;15.92;100.00
14767;BME280;7475;53.558;9.970;2023-06-10T00:35:52;101840.00;;;15.89;100.00
14767;BME280;7475;53.558;9.970;2023-06-10T00:38:17;101840.22;;;15.86;100.00
14767;BME280;7475;53.558;9.970;2023-06-10T00:40:43;101835.06;;;15.82;100.00
14767;BME280;7475;53.558;9.970;2023-06-10T00:43:08;101835.31;;;15.79;100.00
14767;BME280;7475;53.558;9.970;2023-06-10T00:45:34;101836.44;;;15.75;100.00
14767;BME280;7475;53.558;9.970;2023-06-10T00:48:00;101846.41;;;15.73;100.00
14767;BME280;7475;53.558;9.970;2023-06-10T00:50:26;101840.38;;;15.70;100.00
14767;BME280;7475;53.558;9.970;2023-06-10T00:52:51;101846.09;;;15.65;100.00
14767;BME280;7475;53.558;9.970;2023-06-10T00:55:18;101854.34;;;15.62;100.00
14767;BME280;7475;53.558;9.970;2023-06-10T00:57:45;101849.19;;;15.59;100.00
14767;BME280;7475;53.558;9.970;2023-06-10T01:00:11;101853.88;;;15.55;100.00
14767;BME280;7475;53.558;9.970;2023-06-10T01:02:37;101854.97;;;15.53;100.00
14767;BME280;7475;53.558;9.970;2023-06-10T01:05:03;101860.53;;;15.50;100.00
14767;BME280;7475;53.558;9.970;2023-06-10T01:07:34;101860.72;;;15.46;100.00
14767;BME280;7475;53.558;9.970;2023-06-10T01:10:20;101862.75;;;15.43;100.00
14767;BME280;7475;53.558;9.970;2023-06-10T01:12:55;101858.56;;;15.39;100.00
14767;BME280;7475;53.558;9.970;2023-06-10T01:15:24;101853.41;;;15.36;100.00
14767;BME280;7475;53.558;9.970;2023-06-10T01:17:58;101858.13;;;15.32;100.00
14767;BME280;7475;53.558;9.970;2023-06-10T01:20:25;101861.00;;;15.29;100.00
14767;BME280;7475;53.558;9.970;2023-06-10T01:22:52;101856.59;;;15.28;100.00
14767;BME280;7475;53.558;9.970;2023-06-10T01:25:19;101858.53;;;15.26;100.00
14767;BME280;7475;53.558;9.970;2023-06-10T01:27:46;101865.81;;;15.24;100.00
14767;BME280;7475;53.558;9.970;2023-06-10T01:30:15;101867.75;;;15.22;100.00
14767;BME280;7475;53.558;9.970;2023-06-10T01:32:45;101864.28;;;15.20;100.00
14767;BME280;7475;53.558;9.970;2023-06-10T01:35:11;101865.38;;;15.17;100.00
14767;BME280;7475;53.558;9.970;2023-06-10T01:37:43;101861.91;;;15.15;100.00
14767;BME280;7475;53.558;9.970;2023-06-10T01:40:10;101868.34;;;15.13;100.00
14767;BME280;7475;53.558;9.970;2023-06-10T01:42:37;101873.91;;;15.09;100.00
14767;BME280;7475;53.558;9.970;2023-06-10T01:45:03;101866.81;;;15.08;100.00
14767;BME280;7475;53.558;9.970;2023-06-10T01:47:28;101874.09;;;15.06;100.00
14767;BME280;7475;53.558;9.970;2023-06-10T01:49:54;101859.09;;;15.04;100.00
14767;BME280;7475;53.558;9.970;2023-06-10T01:52:19;101862.84;;;15.01;100.00
14767;BME280;7475;53.558;9.970;2023-06-10T01:54:45;101862.09;;;14.99;100.00
14767;BME280;7475;53.558;9.970;2023-06-10T01:57:10;101858.66;;;14.97;100.00
14767;BME280;7475;53.558;9.970;2023-06-10T01:59:35;101864.19;;;14.94;100.00
14767;BME280;7475;53.558;9.970;2023-06-10T02:02:03;101865.19;;;14.93;100.00
14767;BME280;7475;53.558;9.970;2023-06-10T02:04:28;101858.19;;;14.90;100.00
14767;BME280;7475;53.558;9.970;2023-06-10T02:06:53;101860.13;;;14.88;100.00
14767;BME280;7475;53.558;9.970;2023-06-10T02:09:21;101858.50;;;14.86;100.00
14767;BME280;7475;53.558;9.970;2023-06-10T02:11:46;101856.91;;;14.83;100.00
14767;BME280;7475;53.558;9.970;2023-06-10T02:14:11;101856.03;;;14.83;100.00
14767;BME280;7475;53.558;9.970;2023-06-10T02:16:37;101861.56;;;14.80;100.00
14767;BME280;7475;53.558;9.970;2023-06-10T02:19:02;101854.53;;;14.79;100.00
14767;BME280;7475;53.558;9.970;2023-06-10T02:21:31;101854.72;;;14.75;100.00
14767;BME280;7475;53.558;9.970;2023-06-10T02:23:56;101857.41;;;14.75;100.00
14767;BME280;7475;53.558;9.970;2023-06-10T02:26:21;101863.69;;;14.74;100.00
14767;BME280;7475;53.558;9.970;2023-06-10T02:28:48;101860.25;;;14.72;100.00
14767;BME280;7475;53.558;9.970;2023-06-10T02:31:13;101866.56;;;14.71;100.00
14767;BME280;7475;53.558;9.970;2023-06-10T02:33:38;101862.19;;;14.70;100.00
14767;BME280;7475;53.558;9.970;2023-06-10T02:36:05;101853.38;;;14.68;100.00
14767;BME280;7475;53.558;9.970;2023-06-10T02:38:31;101852.63;;;14.66;100.00
14767;BME280;7475;53.558;9.970;2023-06-10T02:40:56;101864.28;;;14.65;100.00
14767;BME280;7475;53.558;9.970;2023-06-10T02:43:21;101862.56;;;14.64;100.00
14767;BME280;7475;53.558;9.970;2023-06-10T02:45:46;101867.94;;;14.64;100.00
14767;BME280;7475;53.558;9.970;2023-06-10T02:48:12;101863.63;;;14.62;100.00
14767;BME280;7475;53.558;9.970;2023-06-10T02:50:37;101869.81;;;14.62;100.00
14767;BME280;7475;53.558;9.970;2023-06-10T02:53:05;101869.06;;;14.60;100.00
14767;BME280;7475;53.558;9.970;2023-06-10T02:55:30;101871.81;;;14.58;100.00
14767;BME280;7475;53.558;9.970;2023-06-10T02:57:55;101870.94;;;14.58;100.00
14767;BME280;7475;53.558;9.970;2023-06-10T03:00:21;101862.94;;;14.58;100.00
14767;BME280;7475;53.558;9.970;2023-06-10T03:02:47;101866.56;;;14.57;100.00
14767;BME280;7475;53.558;9.970;2023-06-10T03:05:14;101870.19;;;14.56;100.00
14767;BME280;7475;53.558;9.970;2023-06-10T03:07:39;101880.91;;;14.56;100.00
14767;BME280;7475;53.558;9.970;2023-06-10T03:10:06;101874.66;;;14.55;100.00
14767;BME280;7475;53.558;9.970;2023-06-10T03:12:31;101880.13;;;14.54;100.00
14767;BME280;7475;53.558;9.970;2023-06-10T03:14:56;101879.16;;;14.55;100.00
14767;BME280;7475;53.558;9.970;2023-06-10T03:17:22;101882.78;;;14.54;100.00
14767;BME280;7475;53.558;9.970;2023-06-10T03:19:47;101876.59;;;14.53;100.00
14767;BME280;7475;53.558;9.970;2023-06-10T03:22:14;101874.00;;;14.52;100.00
14767;BME280;7475;53.558;9.970;2023-06-10T03:24:40;101879.25;;;14.53;100.00
14767;BME280;7475;53.558;9.970;2023-06-10T03:27:09;101877.44;;;14.54;100.00
14767;BME280;7475;53.558;9.970;2023-06-10T03:29:36;101877.44;;;14.54;100.00
14767;BME280;7475;53.558;9.970;2023-06-10T03:32:02;101877.44;;;14.54;100.00
14767;BME280;7475;53.558;9.970;2023-06-10T03:34:27;101870.41;;;14.53;100.00
14767;BME280;7475;53.558;9.970;2023-06-10T03:36:53;101873.06;;;14.53;100.00
14767;BME280;7475;53.558;9.970;2023-06-10T03:39:18;101876.59;;;14.53;100.00
14767;BME280;7475;53.558;9.970;2023-06-10T03:41:43;101878.31;;;14.54;100.00
14767;BME280;7475;53.558;9.970;2023-06-10T03:44:09;101877.44;;;14.54;100.00
14767;BME280;7475;53.558;9.970;2023-06-10T03:46:34;101877.44;;;14.54;100.00
14767;BME280;7475;53.558;9.970;2023-06-10T03:48:59;101882.78;;;14.54;100.00
14767;BME280;7475;53.558;9.970;2023-06-10T03:51:26;101883.66;;;14.54;100.00
14767;BME280;7475;53.558;9.970;2023-06-10T03:53:51;101879.16;;;14.55;100.00
14767;BME280;7475;53.558;9.970;2023-06-10T03:56:17;101880.91;;;14.56;100.00
14767;BME280;7475;53.558;9.970;2023-06-10T03:58:42;101883.47;;;14.57;100.00
14767;BME280;7475;53.558;9.970;2023-06-10T04:01:07;101887.00;;;14.58;100.00
14767;BME280;7475;53.558;9.970;2023-06-10T04:03:32;101883.38;;;14.59;100.00
14767;BME280;7475;53.558;9.970;2023-06-10T04:05:58;101879.75;;;14.60;100.00
14767;BME280;7475;53.558;9.970;2023-06-10T04:08:23;101883.31;;;14.61;100.00
14767;BME280;7475;53.558;9.970;2023-06-10T04:10:49;101879.66;;;14.62;100.00
14767;BME280;7475;53.558;9.970;2023-06-10T04:13:14;101872.41;;;14.64;100.00
14767;BME280;7475;53.558;9.970;2023-06-10T04:15:40;101875.84;;;14.66;100.00
14767;BME280;7475;53.558;9.970;2023-06-10T04:18:06;101876.50;;;14.69;100.00
14767;BME280;7475;53.558;9.970;2023-06-10T04:20:31;101871.16;;;14.69;100.00
14767;BME280;7475;53.558;9.970;2023-06-10T04:22:57;101880.81;;;14.72;100.00
14767;BME280;7475;53.558;9.970;2023-06-10T04:25:22;101878.13;;;14.72;100.00
14767;BME280;7475;53.558;9.970;2023-06-10T04:27:49;101883.38;;;14.73;100.00
14767;BME280;7475;53.558;9.970;2023-06-10T04:30:15;101881.47;;;14.75;100.00
14767;BME280;7475;53.558;9.970;2023-06-10T04:32:41;101877.81;;;14.77;100.00
14767;BME280;7475;53.558;9.970;2023-06-10T04:35:07;101882.97;;;14.80;100.00
14767;BME280;7475;53.558;9.970;2023-06-10T04:37:32;101881.06;;;14.82;100.00
14767;BME280;7475;53.558;9.970;2023-06-10T04:39:57;101872.94;;;14.83;100.00
14767;BME280;7475;53.558;9.970;2023-06-10T04:42:24;101881.63;;;14.87;100.00
14767;BME280;7475;53.558;9.970;2023-06-10T04:44:49;101873.59;;;14.87;100.00
14767;BME280;7475;53.558;9.970;2023-06-10T04:47:15;101891.16;;;14.91;100.00
14767;BME280;7475;53.558;9.970;2023-06-10T04:49:42;101882.16;;;14.92;100.00
14767;BME280;7475;53.558;9.970;2023-06-10T04:52:07;101887.31;;;14.95;100.00
14767;BME280;7475;53.558;9.970;2023-06-10T04:54:32;101879.19;;;14.97;100.00
14767;BME280;7475;53.558;9.970;2023-06-10T04:56:58;101878.16;;;14.99;100.00
14767;BME280;7475;53.558;9.970;2023-06-10T04:59:24;101877.94;;;15.02;100.00
14767;BME280;7475;53.558;9.970;2023-06-10T05:01:49;101876.03;;;15.04;100.00
14767;BME280;7475;53.558;9.970;2023-06-10T05:04:14;101880.31;;;15.07;100.00
14767;BME280;7475;53.558;9.970;2023-06-10T05:06:40;101875.63;;;15.10;100.00
14767;BME280;7475;53.558;9.970;2023-06-10T05:09:05;101877.13;;;15.15;100.00
14767;BME280;7475;53.558;9.970;2023-06-10T05:11:30;101883.03;;;15.20;100.00
14767;BME280;7475;53.558;9.970;2023-06-10T05:13:55;101881.03;;;15.23;100.00
14767;BME280;7475;53.558;9.970;2023-06-10T05:16:21;101879.94;;;15.26;100.00
14767;BME280;7475;53.558;9.970;2023-06-10T05:18:46;101884.13;;;15.30;100.00
14767;BME280;7475;53.558;9.970;2023-06-10T05:21:11;101888.31;;;15.34;100.00
14767;BME280;7475;53.558;9.970;2023-06-10T05:23:37;101884.47;;;15.38;100.00
14767;BME280;7475;53.558;9.970;2023-06-10T05:26:02;101884.28;;;15.41;100.00
14767;BME280;7475;53.558;9.970;2023-06-10T05:28:27;101891.13;;;15.45;100.00
14767;BME280;7475;53.558;9.970;2023-06-10T05:30:52;101887.28;;;15.50;100.00
14767;BME280;7475;53.558;9.970;2023-06-10T05:33:18;101888.78;;;15.54;100.00
14767;BME280;7475;53.558;9.970;2023-06-10T05:35:43;101895.66;;;15.58;100.00
14767;BME280;7475;53.558;9.970;2023-06-10T05:38:09;101896.31;;;15.61;100.00
14767;BME280;7475;53.558;9.970;2023-06-10T05:40:34;101889.03;;;15.63;100.00
14767;BME280;7475;53.558;9.970;2023-06-10T05:42:59;101894.06;;;15.68;100.00
14767;BME280;7475;53.558;9.970;2023-06-10T05:45:24;101882.94;;;15.74;100.00
14767;BME280;7475;53.558;9.970;2023-06-10T05:47:50;101879.88;;;15.80;100.00
14767;BME280;7475;53.558;9.970;2023-06-10T05:50:15;101874.28;;;15.83;100.00
14767;BME280;7475;53.558;9.970;2023-06-10T05:52:41;101872.16;;;15.89;100.00
14767;BME280;7475;53.558;9.970;2023-06-10T05:55:06;101871.94;;;15.92;100.00
14767;BME280;7475;53.558;9.970;2023-06-10T05:57:32;101873.44;;;15.96;100.00
14767;BME280;7475;53.558;9.970;2023-06-10T05:59:57;101876.66;;;16.01;100.00
14767;BME280;7475;53.558;9.970;2023-06-10T06:02:23;101878.19;;;16.05;100.00
14767;BME280;7475;53.558;9.970;2023-06-10T06:04:49;101867.22;;;16.08;100.00
14767;BME280;7475;53.558;9.970;2023-06-10T06:07:14;101870.44;;;16.13;100.00
14767;BME280;7475;53.558;9.970;2023-06-10T06:09:40;101877.28;;;16.17;100.00
14767;BME280;7475;53.558;9.970;2023-06-10T06:12:05;101864.41;;;16.23;100.00
14767;BME280;7475;53.558;9.970;2023-06-10T06:14:32;101869.34;;;16.29;100.00
14767;BME280;7475;53.558;9.970;2023-06-10T06:16:58;101865.50;;;16.33;100.00
14767;BME280;7475;53.558;9.970;2023-06-10T06:19:23;101857.97;;;16.38;100.00
14767;BME280;7475;53.558;9.970;2023-06-10T06:21:48;101853.22;;;16.42;100.00
14767;BME280;7475;53.558;9.970;2023-06-10T06:24:14;101857.31;;;16.47;100.00
14767;BME280;7475;53.558;9.970;2023-06-10T06:26:40;101856.00;;;16.53;100.00
14767;BME280;7475;53.558;9.970;2023-06-10T06:29:05;101855.56;;;16.59;100.00
14767;BME280;7475;53.558;9.970;2023-06-10T06:31:30;101852.66;;;16.62;100.00
14767;BME280;7475;53.558;9.970;2023-06-10T06:33:56;101861.09;;;16.69;100.00
14767;BME280;7475;53.558;9.970;2023-06-10T06:36:21;101862.59;;;16.73;100.00
14767;BME280;7475;53.558;9.970;2023-06-10T06:38:47;101869.44;;;16.77;100.00
14767;BME280;7475;53.558;9.970;2023-06-10T06:41:12;101865.56;;;16.81;100.00
14767;BME280;7475;53.558;9.970;2023-06-10T06:43:37;101858.06;;;16.86;100.00
14767;BME280;7475;53.558;9.970;2023-06-10T06:46:03;101857.84;;;16.89;100.00
14767;BME280;7475;53.558;9.970;2023-06-10T06:48:28;101855.66;;;16.95;100.00
14767;BME280;7475;53.558;9.970;2023-06-10T06:50:53;101855.22;;;17.01;100.00
14767;BME280;7475;53.558;9.970;2023-06-10T06:53:21;101863.53;;;17.09;100.00
14767;BME280;7475;53.558;9.970;2023-06-10T06:55:46;101861.38;;;17.14;100.00
14767;BME280;7475;53.558;9.970;2023-06-10T06:58:11;101862.63;;;17.21;100.00
14767;BME280;7475;53.558;9.970;2023-06-10T07:00:37;101867.53;;;17.27;100.00
14767;BME280;7475;53.558;9.970;2023-06-10T07:03:02;101863.41;;;17.35;100.00
14767;BME280;7475;53.558;9.970;2023-06-10T07:05:27;101862.72;;;17.44;100.00
14767;BME280;7475;53.558;9.970;2023-06-10T07:07:53;101868.22;;;17.54;100.00
14767;BME280;7475;53.558;9.970;2023-06-10T07:10:24;101872.66;;;17.66;100.00
14767;BME280;7475;53.558;9.970;2023-06-10T07:12:50;101865.47;;;17.78;100.00
14767;BME280;7475;53.558;9.970;2023-06-10T07:15:16;101873.34;;;17.92;100.00
14767;BME280;7475;53.558;9.970;2023-06-10T07:17:41;101874.97;;;18.06;100.00
14767;BME280;7475;53.558;9.970;2023-06-10T07:20:07;101878.00;;;18.24;100.00
14767;BME280;7475;53.558;9.970;2023-06-10T07:22:32;101879.09;;;18.44;100.00
14767;BME280;7475;53.558;9.970;2023-06-10T07:24:58;101876.28;;;18.68;100.00
14767;BME280;7475;53.558;9.970;2023-06-10T07:27:23;101884.03;;;19.05;100.00
14767;BME280;7475;53.558;9.970;2023-06-10T07:29:49;101876.75;;;19.50;100.00
14767;BME280;7475;53.558;9.970;2023-06-10T07:32:14;101877.69;;;20.02;100.00
14767;BME280;7475;53.558;9.970;2023-06-10T07:34:40;101876.03;;;20.51;100.00
14767;BME280;7475;53.558;9.970;2023-06-10T07:37:05;101880.25;;;20.95;100.00
14767;BME280;7475;53.558;9.970;2023-06-10T07:39:30;101875.72;;;21.44;100.00
14767;BME280;7475;53.558;9.970;2023-06-10T07:41:56;101871.69;;;21.87;100.00
14767;BME280;7475;53.558;9.970;2023-06-10T07:44:22;101869.03;;;22.15;100.00
14767;BME280;7475;53.558;9.970;2023-06-10T07:46:48;101869.00;;;22.34;100.00
14767;BME280;7475;53.558;9.970;2023-06-10T07:49:13;101870.19;;;22.50;100.00
14767;BME280;7475;53.558;9.970;2023-06-10T07:51:39;101873.09;;;22.66;100.00
14767;BME280;7475;53.558;9.970;2023-06-10T07:54:04;101859.91;;;22.81;100.00
14767;BME280;7475;53.558;9.970;2023-06-10T07:56:29;101868.03;;;22.99;100.00
14767;BME280;7475;53.558;9.970;2023-06-10T07:58:55;101865.56;;;23.24;100.00
14767;BME280;7475;53.558;9.970;2023-06-10T08:01:20;101865.06;;;23.46;100.00
14767;BME280;7475;53.558;9.970;2023-06-10T08:03:45;101864.25;;;23.72;100.00
14767;BME280;7475;53.558;9.970;2023-06-10T08:06:11;101863.41;;;23.98;100.00
14767;BME280;7475;53.558;9.970;2023-06-10T08:08:37;101856.59;;;24.20;100.00
14767;BME280;7475;53.558;9.970;2023-06-10T08:11:07;101859.91;;;24.40;100.00
14767;BME280;7475;53.558;9.970;2023-06-10T08:13:32;101858.97;;;24.58;100.00
14767;BME280;7475;53.558;9.970;2023-06-10T08:15:57;101861.38;;;24.69;100.00
14767;BME280;7475;53.558;9.970;2023-06-10T08:18:23;101862.75;;;24.89;100.00
14767;BME280;7475;53.558;9.970;2023-06-10T08:20:48;101858.72;;;25.10;100.00
14767;BME280;7475;53.558;9.970;2023-06-10T08:23:14;101858.09;;;25.33;100.00
14767;BME280;7475;53.558;9.970;2023-06-10T08:25:39;101857.41;;;25.47;100.00
14767;BME280;7475;53.558;9.970;2023-06-10T08:28:05;101862.47;;;25.58;100.00
14767;BME280;7475;53.558;9.970;2023-06-10T08:30:30;101862.28;;;25.68;100.00
14767;BME280;7475;53.558;9.970;2023-06-10T08:32:55;101863.13;;;25.85;100.00
14767;BME280;7475;53.558;9.970;2023-06-10T08:35:21;101855.13;;;25.84;100.00
14767;BME280;7475;53.558;9.970;2023-06-10T08:37:46;101864.19;;;25.59;100.00
14767;BME280;7475;53.558;9.970;2023-06-10T08:40:12;101864.88;;;25.45;100.00
14767;BME280;7475;53.558;9.970;2023-06-10T08:42:39;101858.78;;;25.43;100.00
14767;BME280;7475;53.558;9.970;2023-06-10T08:45:12;101861.16;;;25.54;100.00
14767;BME280;7475;53.558;9.970;2023-06-10T08:47:44;101863.16;;;25.69;100.00
14767;BME280;7475;53.558;9.970;2023-06-10T08:50:10;101870.31;;;25.78;100.00
14767;BME280;7475;53.558;9.970;2023-06-10T08:52:36;101865.50;;;25.96;100.00
14767;BME280;7475;53.558;9.970;2023-06-10T08:55:15;101867.66;;;26.17;100.00
14767;BME280;7475;53.558;9.970;2023-06-10T08:57:45;101859.41;;;26.42;100.00
14767;BME280;7475;53.558;9.970;2023-06-10T09:00:12;101861.50;;;26.63;100.00
14767;BME280;7475;53.558;9.970;2023-06-10T09:02:38;101855.63;;;26.83;100.00
14767;BME280;7475;53.558;9.970;2023-06-10T09:05:03;101856.13;;;27.10;100.00
14767;BME280;7475;53.558;9.970;2023-06-10T09:07:30;101853.06;;;27.28;100.00
14767;BME280;7475;53.558;9.970;2023-06-10T09:09:57;101849.38;;;27.43;100.00
14767;BME280;7475;53.558;9.970;2023-06-10T09:12:22;101852.22;;;27.65;99.36
14767;BME280;7475;53.558;9.970;2023-06-10T09:14:48;101848.56;;;27.88;97.39
14767;BME280;7475;53.558;9.970;2023-06-10T09:17:13;101846.44;;;28.13;97.30
14767;BME280;7475;53.558;9.970;2023-06-10T09:19:39;101844.25;;;28.38;94.99
14767;BME280;7475;53.558;9.970;2023-06-10T09:22:05;101838.47;;;28.63;92.55
14767;BME280;7475;53.558;9.970;2023-06-10T09:24:31;101847.34;;;28.86;89.72
14767;BME280;7475;53.558;9.970;2023-06-10T09:27:07;101840.81;;;29.09;88.45
14767;BME280;7475;53.558;9.970;2023-06-10T09:29:46;101833.00;;;29.28;84.92
14767;BME280;7475;53.558;9.970;2023-06-10T09:32:12;101828.53;;;29.48;80.23
14767;BME280;7475;53.558;9.970;2023-06-10T09:34:39;101835.25;;;29.74;78.92
14767;BME280;7475;53.558;9.970;2023-06-10T09:37:05;101830.16;;;29.99;76.45
14767;BME280;7475;53.558;9.970;2023-06-10T09:39:30;101834.50;;;30.28;77.82
14767;BME280;7475;53.558;9.970;2023-06-10T09:41:55;101820.13;;;30.68;72.03
14767;BME280;7475;53.558;9.970;2023-06-10T09:44:21;101821.03;;;31.09;67.49
14767;BME280;7475;53.558;9.970;2023-06-10T09:46:48;101824.19;;;31.52;68.38
14767;BME280;7475;53.558;9.970;2023-06-10T09:49:16;101829.56;;;31.99;64.58
14767;BME280;7475;53.558;9.970;2023-06-10T09:51:51;101822.19;;;32.52;59.61
14767;BME280;7475;53.558;9.970;2023-06-10T09:54:17;101829.94;;;33.00;56.58
14767;BME280;7475;53.558;9.970;2023-06-10T09:56:47;101828.28;;;33.49;52.18
14767;BME280;7475;53.558;9.970;2023-06-10T09:59:12;101824.81;;;33.98;50.44
14767;BME280;7475;53.558;9.970;2023-06-10T10:01:38;101828.34;;;34.54;47.05
14767;BME280;7475;53.558;9.970;2023-06-10T10:04:03;101830.06;;;35.09;43.69
14767;BME280;7475;53.558;9.970;2023-06-10T10:06:30;101823.75;;;35.55;41.41
14767;BME280;7475;53.558;9.970;2023-06-10T10:08:55;101821.38;;;36.12;39.56
14767;BME280;7475;53.558;9.970;2023-06-10T10:11:22;101825.97;;;36.75;37.78
14767;BME280;7475;53.558;9.970;2023-06-10T10:13:49;101823.81;;;37.45;34.46
14767;BME280;7475;53.558;9.970;2023-06-10T10:16:16;101821.91;;;38.12;33.20
14767;BME280;7475;53.558;9.970;2023-06-10T10:18:51;101826.59;;;38.83;31.88
14767;BME280;7475;53.558;9.970;2023-06-10T10:21:22;101821.47;;;39.87;31.11
14767;BME280;7475;53.558;9.970;2023-06-10T10:24:07;101815.03;;;41.12;28.24
14767;BME280;7475;53.558;9.970;2023-06-10T10:26:35;101815.88;;;42.53;27.20
14767;BME280;7475;53.558;9.970;2023-06-10T10:29:27;101817.16;;;43.59;24.80
14767;BME280;7475;53.558;9.970;2023-06-10T10:31:55;101812.97;;;44.95;23.86
14767;BME280;7475;53.558;9.970;2023-06-10T10:34:27;101798.97;;;46.06;21.93
14767;BME280;7475;53.558;9.970;2023-06-10T10:36:56;101805.66;;;47.01;20.94
14767;BME280;7475;53.558;9.970;2023-06-10T10:39:22;101791.44;;;48.04;20.27
14767;BME280;7475;53.558;9.970;2023-06-10T10:41:48;101793.78;;;49.01;18.82
14767;BME280;7475;53.558;9.970;2023-06-10T10:44:15;101795.47;;;49.92;18.29
14767;BME280;7475;53.558;9.970;2023-06-10T10:46:48;101790.44;;;50.73;17.50
14767;BME280;7475;53.558;9.970;2023-06-10T10:49:15;101784.59;;;51.65;16.58
14767;BME280;7475;53.558;9.970;2023-06-10T10:52:02;101782.91;;;52.45;16.90
14767;BME280;7475;53.558;9.970;2023-06-10T10:54:35;101770.16;;;52.99;15.39
14767;BME280;7475;53.558;9.970;2023-06-10T10:57:17;101785.34;;;53.58;14.89
14767;BME280;7475;53.558;9.970;2023-06-10T11:05:01;101772.34;;;55.01;14.19
14767;BME280;7475;53.558;9.970;2023-06-10T11:07:29;101768.00;;;55.34;13.20
14767;BME280;7475;53.558;9.970;2023-06-10T11:12:25;101768.78;;;55.92;12.97
14767;BME280;7475;53.558;9.970;2023-06-10T11:14:54;101767.84;;;56.18;12.34
14767;BME280;7475;53.558;9.970;2023-06-10T11:17:21;101761.00;;;56.23;12.30
14767;BME280;7475;53.558;9.970;2023-06-10T11:19:46;101753.59;;;56.18;12.67
14767;BME280;7475;53.558;9.970;2023-06-10T11:22:16;101751.56;;;55.84;12.36
14767;BME280;7475;53.558;9.970;2023-06-10T11:24:47;101746.66;;;55.81;12.19
14767;BME280;7475;53.558;9.970;2023-06-10T11:27:23;101747.44;;;55.78;12.55
14767;BME280;7475;53.558;9.970;2023-06-10T11:32:31;101754.38;;;55.24;12.35
14767;BME280;7475;53.558;9.970;2023-06-10T11:34:57;101740.97;;;54.94;12.55
14767;BME280;7475;53.558;9.970;2023-06-10T11:37:22;101738.38;;;54.62;13.47
14767;BME280;7475;53.558;9.970;2023-06-10T11:39:53;101741.28;;;54.23;13.63
14767;BME280;7475;53.558;9.970;2023-06-10T11:42:19;101748.34;;;53.71;13.81
14767;BME280;7475;53.558;9.970;2023-06-10T11:44:51;101748.09;;;53.08;14.33
14767;BME280;7475;53.558;9.970;2023-06-10T11:47:17;101739.84;;;52.39;14.50
14767;BME280;7475;53.558;9.970;2023-06-10T11:49:43;101733.66;;;51.65;15.14
14767;BME280;7475;53.558;9.970;2023-06-10T11:52:09;101736.50;;;51.03;15.68
14767;BME280;7475;53.558;9.970;2023-06-10T11:54:34;101736.75;;;50.40;15.94
14767;BME280;7475;53.558;9.970;2023-06-10T11:57:00;101740.69;;;49.93;16.25
14767;BME280;7475;53.558;9.970;2023-06-10T11:59:29;101743.06;;;49.31;16.75
14767;BME280;7475;53.558;9.970;2023-06-10T12:01:55;101742.53;;;48.99;17.32
14767;BME280;7475;53.558;9.970;2023-06-10T12:04:21;101743.63;;;48.68;17.33
14767;BME280;7475;53.558;9.970;2023-06-10T12:06:49;101738.06;;;48.33;17.63
14767;BME280;7475;53.558;9.970;2023-06-10T12:09:18;101735.13;;;48.04;17.94
14767;BME280;7475;53.558;9.970;2023-06-10T12:11:44;101737.03;;;47.59;18.19
14767;BME280;7475;53.558;9.970;2023-06-10T12:14:09;101731.72;;;47.32;18.47
14767;BME280;7475;53.558;9.970;2023-06-10T12:16:35;101725.19;;;47.14;18.76
14767;BME280;7475;53.558;9.970;2023-06-10T12:19:05;101730.47;;;46.75;18.78
14767;BME280;7475;53.558;9.970;2023-06-10T12:21:33;101724.66;;;46.26;19.29
14767;BME280;7475;53.558;9.970;2023-06-10T12:24:09;101726.28;;;45.82;19.54
14767;BME280;7475;53.558;9.970;2023-06-10T12:26:41;101730.91;;;45.22;19.89
14767;BME280;7475;53.558;9.970;2023-06-10T12:29:21;101727.97;;;44.86;20.26
14767;BME280;7475;53.558;9.970;2023-06-10T12:32:15;101718.38;;;44.40;20.77
14767;BME280;7475;53.558;9.970;2023-06-10T12:34:41;101714.63;;;44.12;21.30
14767;BME280;7475;53.558;9.970;2023-06-10T12:37:10;101712.06;;;43.96;21.49
14767;BME280;7475;53.558;9.970;2023-06-10T12:39:39;101714.78;;;43.63;21.73
14767;BME280;7475;53.558;9.970;2023-06-10T12:42:04;101705.69;;;43.28;22.13
14767;BME280;7475;53.558;9.970;2023-06-10T12:44:35;101701.09;;;42.89;22.44
14767;BME280;7475;53.558;9.970;2023-06-10T12:47:10;101692.50;;;42.56;22.89
14767;BME280;7475;53.558;9.970;2023-06-10T12:49:37;101693.31;;;42.22;23.38
14767;BME280;7475;53.558;9.970;2023-06-10T12:52:04;101695.28;;;41.77;23.27
14767;BME280;7475;53.558;9.970;2023-06-10T12:54:29;101703.31;;;41.29;23.71
14767;BME280;7475;53.558;9.970;2023-06-10T12:56:55;101702.56;;;40.92;24.50
14767;BME280;7475;53.558;9.970;2023-06-10T12:59:20;101699.22;;;40.54;25.05
14767;BME280;7475;53.558;9.970;2023-06-10T13:01:52;101708.38;;;40.19;25.33